createdAt,value
2018-11-13T00:00:24.147Z,8.80
2018-11-13T00:02:53.838Z,8.80
2018-11-13T00:05:23.490Z,8.90
2018-11-13T00:07:52.740Z,8.90
2018-11-13T00:10:21.992Z,8.90
2018-11-13T00:12:51.150Z,8.90
2018-11-13T00:15:20.304Z,8.90
2018-11-13T00:17:49.450Z,9.00
2018-11-13T00:20:19.384Z,9.00
2018-11-13T00:22:48.596Z,9.10
2018-11-13T00:25:18.776Z,9.00
2018-11-13T00:27:47.924Z,9.00
2018-11-13T00:30:18.788Z,9.00
2018-11-13T00:32:47.969Z,9.00
2018-11-13T00:35:17.740Z,9.00
2018-11-13T00:37:47.572Z,9.00
2018-11-13T00:40:17.364Z,9.00
2018-11-13T00:42:47.036Z,9.00
2018-11-13T00:45:16.240Z,9.00
2018-11-13T00:47:45.392Z,9.00
2018-11-13T00:50:16.201Z,9.00
2018-11-13T00:52:45.923Z,9.00
2018-11-13T00:55:15.211Z,9.00
2018-11-13T00:57:44.536Z,9.00
2018-11-13T01:00:16.020Z,9.00
2018-11-13T01:02:45.389Z,9.00
2018-11-13T01:05:15.775Z,8.90
2018-11-13T01:07:46.096Z,8.90
2018-11-13T01:10:16.435Z,9.00
2018-11-13T01:12:46.275Z,8.90
2018-11-13T01:15:16.458Z,8.80
2018-11-13T01:17:46.295Z,8.90
2018-11-13T01:20:16.290Z,8.90
2018-11-13T01:22:45.499Z,8.80
2018-11-13T01:25:15.535Z,8.80
2018-11-13T01:27:45.139Z,8.80
2018-11-13T01:30:15.151Z,8.80
2018-11-13T01:32:44.762Z,8.70
2018-11-13T01:35:15.442Z,8.70
2018-11-13T01:37:44.618Z,8.70
2018-11-13T01:40:15.858Z,8.70
2018-11-13T01:42:45.334Z,8.70
2018-11-13T01:45:15.855Z,8.80
2018-11-13T01:47:45.027Z,8.80
2018-11-13T01:50:14.442Z,8.80
2018-11-13T01:52:43.600Z,8.80
2018-11-13T01:55:13.967Z,8.80
2018-11-13T01:57:43.131Z,8.80
2018-11-13T02:00:22.800Z,8.80
2018-11-13T02:02:53.250Z,8.90
2018-11-13T02:05:23.455Z,8.90
2018-11-13T02:07:53.482Z,8.90
2018-11-13T02:10:22.872Z,8.90
2018-11-13T02:12:52.702Z,8.90
2018-11-13T02:15:22.387Z,8.90
2018-11-13T02:17:51.551Z,8.80
2018-11-13T02:20:22.013Z,8.80
2018-11-13T02:22:51.225Z,8.90
2018-11-13T02:25:21.119Z,8.90
2018-11-13T02:27:50.548Z,8.90
2018-11-13T02:30:21.069Z,8.90
2018-11-13T02:32:50.587Z,8.80
2018-11-13T02:35:19.853Z,8.90
2018-11-13T02:37:48.998Z,8.90
2018-11-13T02:40:18.155Z,9.00
2018-11-13T02:42:47.328Z,9.00
2018-11-13T02:45:17.892Z,9.00
2018-11-13T02:47:47.093Z,9.00
2018-11-13T02:50:17.403Z,9.00
2018-11-13T02:52:46.599Z,9.00
2018-11-13T02:55:15.832Z,9.00
2018-11-13T02:57:45.621Z,9.00
2018-11-13T03:00:17.374Z,9.10
2018-11-13T03:02:46.521Z,9.10
2018-11-13T03:05:16.985Z,9.10
2018-11-13T03:07:46.148Z,9.10
2018-11-13T03:10:16.589Z,9.10
2018-11-13T03:12:45.747Z,9.00
2018-11-13T03:15:16.017Z,9.00
2018-11-13T03:17:45.184Z,9.00
2018-11-13T03:20:15.845Z,9.00
2018-11-13T03:22:45.376Z,9.00
2018-11-13T03:25:16.190Z,9.00
2018-11-13T03:27:45.407Z,9.10
2018-11-13T03:30:17.815Z,9.10
2018-11-13T03:32:46.981Z,9.10
2018-11-13T03:35:16.124Z,9.10
2018-11-13T03:37:45.328Z,9.20
2018-11-13T03:40:15.060Z,9.10
2018-11-13T03:42:44.858Z,9.10
2018-11-13T03:45:14.409Z,9.10
2018-11-13T03:47:43.643Z,9.10
2018-11-13T03:50:16.411Z,9.10
2018-11-13T03:52:45.980Z,9.10
2018-11-13T03:55:15.679Z,9.10
2018-11-13T03:57:45.499Z,9.10
2018-11-13T04:00:19.912Z,9.00
2018-11-13T04:02:49.083Z,8.90
2018-11-13T04:05:19.124Z,8.90
2018-11-13T04:07:49.556Z,8.80
2018-11-13T04:10:19.892Z,8.90
2018-11-13T04:12:49.110Z,8.90
2018-11-13T04:15:19.693Z,8.90
2018-11-13T04:17:48.892Z,8.90
2018-11-13T04:20:19.319Z,8.90
2018-11-13T04:22:48.860Z,8.90
2018-11-13T04:25:18.059Z,9.00
2018-11-13T04:27:47.205Z,9.00
2018-11-13T04:30:17.985Z,9.00
2018-11-13T04:32:47.138Z,9.00
2018-11-13T04:35:23.083Z,9.00
2018-11-13T04:37:52.219Z,9.00
2018-11-13T04:40:21.823Z,9.10
2018-11-13T04:42:53.130Z,9.10
2018-11-13T04:45:23.707Z,9.10
2018-11-13T04:47:52.894Z,9.00
2018-11-13T04:50:22.915Z,9.10
2018-11-13T04:52:52.053Z,9.00
2018-11-13T04:55:21.233Z,9.00
2018-11-13T04:57:50.806Z,9.10
2018-11-13T05:00:21.163Z,9.10
2018-11-13T05:02:50.411Z,9.00
2018-11-13T05:06:22.496Z,9.10
2018-11-13T05:08:51.659Z,9.10
2018-11-13T05:11:20.805Z,9.10
2018-11-13T05:13:50.055Z,9.10
2018-11-13T05:16:19.200Z,9.10
2018-11-13T05:18:48.431Z,9.10
2018-11-13T05:21:17.578Z,9.10
2018-11-13T05:23:46.769Z,9.00
2018-11-13T05:26:15.912Z,8.90
2018-11-13T05:28:45.079Z,8.90
2018-11-13T05:31:14.226Z,8.90
2018-11-13T05:33:43.380Z,8.90
2018-11-13T05:36:12.532Z,8.90
2018-11-13T05:38:41.716Z,8.90
2018-11-13T05:41:10.876Z,8.90
2018-11-13T05:43:40.038Z,8.90
2018-11-13T05:46:09.216Z,9.00
2018-11-13T05:48:38.371Z,8.90
2018-11-13T05:51:07.948Z,9.00
2018-11-13T05:53:37.106Z,9.00
2018-11-13T05:56:06.540Z,9.00
2018-11-13T05:58:35.751Z,8.90
2018-11-13T06:01:05.122Z,8.90
2018-11-13T06:03:34.258Z,8.90
2018-11-13T06:06:03.419Z,8.90
2018-11-13T06:08:32.721Z,8.90
2018-11-13T06:11:01.869Z,8.90
2018-11-13T06:13:31.031Z,8.90
2018-11-13T06:16:00.202Z,8.90
2018-11-13T06:18:29.364Z,9.00
2018-11-13T06:20:58.539Z,9.00
2018-11-13T06:23:27.698Z,9.00
2018-11-13T06:25:57.167Z,9.00
2018-11-13T06:28:26.304Z,9.00
2018-11-13T06:30:55.466Z,9.00
2018-11-13T06:33:24.604Z,9.00
2018-11-13T06:35:53.795Z,9.00
2018-11-13T06:38:22.959Z,9.10
2018-11-13T06:40:52.134Z,9.10
2018-11-13T06:43:21.297Z,9.10
2018-11-13T06:45:50.474Z,9.20
2018-11-13T06:48:19.617Z,9.20
2018-11-13T06:50:48.830Z,9.20
2018-11-13T06:53:17.961Z,9.20
2018-11-13T06:55:49.343Z,9.20
2018-11-13T06:58:18.508Z,9.20
2018-11-13T07:00:47.683Z,9.20
2018-11-13T07:03:16.871Z,9.20
2018-11-13T07:05:46.054Z,9.30
2018-11-13T07:08:15.191Z,9.30
2018-11-13T07:10:44.417Z,9.30
2018-11-13T07:13:13.523Z,9.40
2018-11-13T07:15:42.691Z,9.40
2018-11-13T07:18:11.855Z,9.40
2018-11-13T07:20:41.021Z,9.50
2018-11-13T07:23:10.159Z,9.50
2018-11-13T07:25:39.603Z,9.50
2018-11-13T07:28:08.809Z,9.50
2018-11-13T07:30:37.979Z,9.50
2018-11-13T07:33:07.143Z,9.50
2018-11-13T07:35:36.335Z,9.50
2018-11-13T07:38:05.545Z,9.50
2018-11-13T07:40:34.713Z,9.60
2018-11-13T07:43:03.868Z,9.60
2018-11-13T07:45:33.047Z,9.60
2018-11-13T07:48:02.248Z,9.60
2018-11-13T07:50:31.419Z,9.60
2018-11-13T07:53:00.547Z,9.60
2018-11-13T07:55:29.709Z,9.60
2018-11-13T07:57:58.848Z,9.60
2018-11-13T08:00:28.001Z,9.60
2018-11-13T08:03:01.675Z,9.60
2018-11-13T08:05:30.845Z,9.60
2018-11-13T08:08:00.018Z,9.70
2018-11-13T08:10:29.187Z,9.60
2018-11-13T08:12:58.429Z,9.60
2018-11-13T08:15:27.553Z,9.70
2018-11-13T08:17:56.733Z,9.70
2018-11-13T08:20:25.885Z,9.70
2018-11-13T08:22:55.025Z,9.70
2018-11-13T08:25:24.177Z,9.80
2018-11-13T08:27:53.332Z,9.80
2018-11-13T08:30:22.514Z,9.80
2018-11-13T08:32:51.669Z,9.80
2018-11-13T08:35:20.845Z,9.90
2018-11-13T08:37:49.987Z,9.90
2018-11-13T08:40:19.456Z,9.90
2018-11-13T08:42:48.618Z,9.90
2018-11-13T08:45:17.999Z,9.90
2018-11-13T08:47:47.272Z,10.00
2018-11-13T08:50:16.721Z,10.00
2018-11-13T08:52:46.635Z,10.00
2018-11-13T08:55:16.122Z,10.10
2018-11-13T08:57:45.527Z,10.10
2018-11-13T09:00:16.247Z,10.00
2018-11-13T09:02:51.995Z,10.00
2018-11-13T09:05:21.159Z,9.90
2018-11-13T09:07:50.349Z,9.90
2018-11-13T09:10:19.516Z,10.00
2018-11-13T09:12:48.789Z,10.00
2018-11-13T09:15:19.436Z,10.00
2018-11-13T09:17:48.687Z,10.00
2018-11-13T09:20:19.155Z,10.00
2018-11-13T09:22:48.503Z,10.00
2018-11-13T09:25:20.740Z,10.00
2018-11-13T09:27:49.917Z,10.10
2018-11-13T09:30:20.616Z,10.10
2018-11-13T09:32:49.956Z,10.20
2018-11-13T09:35:19.664Z,10.30
2018-11-13T09:37:48.835Z,10.30
2018-11-13T09:40:19.958Z,10.30
2018-11-13T09:42:50.434Z,10.30
2018-11-13T09:45:19.724Z,10.30
2018-11-13T09:47:48.979Z,10.30
2018-11-13T09:50:19.344Z,10.30
2018-11-13T09:52:49.893Z,10.30
2018-11-13T09:55:20.411Z,10.40
2018-11-13T09:57:49.732Z,10.40
2018-11-13T10:00:23.445Z,10.40
2018-11-13T10:02:55.820Z,10.50
2018-11-13T10:05:24.415Z,10.50
2018-11-13T10:07:54.096Z,10.50
2018-11-13T10:10:23.667Z,10.60
2018-11-13T10:12:52.818Z,10.60
2018-11-13T10:15:23.308Z,10.70
2018-11-13T10:17:52.548Z,10.70
2018-11-13T10:20:21.673Z,10.70
2018-11-13T10:22:52.136Z,10.70
2018-11-13T10:25:21.368Z,10.70
2018-11-13T10:27:50.600Z,10.70
2018-11-13T10:30:21.044Z,10.80
2018-11-13T10:32:51.089Z,10.80
2018-11-13T10:35:21.587Z,10.80
2018-11-13T10:37:50.750Z,10.70
2018-11-13T10:40:20.988Z,10.80
2018-11-13T10:42:50.543Z,10.80
2018-11-13T10:45:22.481Z,10.80
2018-11-13T10:47:51.700Z,10.90
2018-11-13T10:50:22.589Z,10.90
2018-11-13T10:52:51.843Z,10.90
2018-11-13T10:55:21.218Z,10.90
2018-11-13T10:57:50.387Z,10.90
2018-11-13T11:00:25.149Z,11.00
2018-11-13T11:02:59.841Z,11.10
2018-11-13T11:05:29.487Z,11.10
2018-11-13T11:07:59.067Z,11.10
2018-11-13T11:10:28.329Z,11.20
2018-11-13T11:12:57.642Z,11.30
2018-11-13T11:15:26.680Z,11.30
2018-11-13T11:17:55.983Z,11.40
2018-11-13T11:20:25.170Z,11.40
2018-11-13T11:22:54.530Z,11.30
2018-11-13T11:25:23.582Z,11.30
2018-11-13T11:27:52.730Z,11.30
2018-11-13T11:30:21.932Z,11.40
2018-11-13T11:32:51.077Z,11.40
2018-11-13T11:35:20.268Z,11.40
2018-11-13T11:37:49.505Z,11.50
2018-11-13T11:40:18.743Z,11.50
2018-11-13T11:42:53.644Z,11.50
2018-11-13T11:45:53.805Z,11.50
2018-11-13T11:48:26.278Z,11.50
2018-11-13T11:54:09.362Z,11.50
2018-11-13T11:56:38.551Z,11.50
2018-11-13T11:59:07.720Z,11.50
2018-11-13T12:01:36.892Z,11.50
2018-11-13T12:04:06.605Z,11.50
2018-11-13T12:06:35.803Z,11.50
2018-11-13T12:09:08.576Z,11.50
2018-11-13T12:11:38.823Z,11.50
2018-11-13T12:14:08.081Z,11.50
2018-11-13T12:16:37.906Z,11.50
2018-11-13T12:19:08.037Z,11.50
2018-11-13T12:21:37.172Z,11.50
2018-11-13T12:24:06.945Z,11.50
2018-11-13T12:26:36.672Z,11.50
2018-11-13T12:29:06.359Z,11.50
2018-11-13T12:31:35.675Z,11.50
2018-11-13T12:34:04.877Z,11.50
2018-11-13T12:36:34.058Z,11.50
2018-11-13T12:39:03.307Z,11.40
2018-11-13T12:41:32.473Z,11.40
2018-11-13T12:44:01.640Z,11.40
2018-11-13T12:46:30.927Z,11.40
2018-11-13T12:49:00.163Z,11.40
2018-11-13T12:51:36.500Z,11.40
2018-11-13T12:54:05.691Z,11.40
2018-11-13T12:56:34.835Z,11.30
2018-11-13T12:59:03.983Z,11.40
2018-11-13T13:01:33.225Z,11.40
2018-11-13T13:04:02.406Z,11.40
2018-11-13T13:06:31.648Z,11.40
2018-11-13T13:09:00.787Z,11.50
2018-11-13T13:11:30.024Z,11.50
2018-11-13T13:14:04.483Z,11.50
2018-11-13T13:16:33.717Z,11.50
2018-11-13T13:19:04.103Z,11.50
2018-11-13T13:21:33.250Z,11.50
2018-11-13T13:24:02.455Z,11.60
2018-11-13T13:26:31.646Z,12.10
2018-11-13T13:29:00.815Z,12.10
2018-11-13T13:31:30.102Z,12.20
2018-11-13T13:33:59.589Z,12.90
2018-11-13T13:36:28.788Z,13.40
2018-11-13T13:38:57.949Z,13.50
2018-11-13T13:41:27.152Z,13.10
2018-11-13T13:43:56.340Z,12.80
2018-11-13T13:46:25.585Z,12.60
2018-11-13T13:48:54.822Z,12.30
2018-11-13T13:51:24.063Z,12.20
2018-11-13T13:53:53.296Z,12.00
2018-11-13T13:56:22.458Z,11.90
2018-11-13T13:58:51.638Z,11.80
2018-11-13T14:01:20.830Z,12.00
2018-11-13T14:03:50.102Z,12.00
2018-11-13T14:06:19.329Z,11.90
2018-11-13T14:08:48.512Z,11.80
2018-11-13T14:11:17.747Z,11.80
2018-11-13T14:13:46.919Z,11.70
2018-11-13T14:16:16.106Z,11.70
2018-11-13T14:18:45.315Z,11.60
2018-11-13T14:21:14.514Z,11.60
2018-11-13T14:23:43.707Z,11.60
2018-11-13T14:26:12.896Z,11.60
2018-11-13T14:28:42.089Z,11.60
2018-11-13T14:31:11.275Z,11.60
2018-11-13T14:33:40.512Z,11.60
2018-11-13T14:36:09.735Z,11.60
2018-11-13T14:38:38.886Z,11.50
2018-11-13T14:41:08.098Z,11.50
2018-11-13T14:43:37.245Z,11.40
2018-11-13T14:46:07.039Z,11.50
2018-11-13T14:48:37.520Z,11.50
2018-11-13T14:51:06.764Z,11.50
2018-11-13T14:53:35.927Z,11.40
2018-11-13T14:56:05.339Z,11.40
2018-11-13T14:58:34.495Z,11.40
2018-11-13T15:01:03.716Z,11.40
2018-11-13T15:03:32.883Z,11.30
2018-11-13T15:06:02.117Z,11.30
2018-11-13T15:08:31.287Z,11.20
2018-11-13T15:11:00.483Z,11.10
2018-11-13T15:13:29.650Z,11.10
2018-11-13T15:15:58.917Z,11.00
2018-11-13T15:18:28.110Z,11.00
2018-11-13T15:20:57.301Z,11.00
2018-11-13T15:23:26.507Z,10.90
2018-11-13T15:25:55.769Z,10.90
2018-11-13T15:28:24.962Z,10.90
2018-11-13T15:30:54.176Z,10.80
2018-11-13T15:33:24.799Z,10.80
2018-11-13T15:35:53.937Z,10.80
2018-11-13T15:38:23.115Z,10.80
2018-11-13T15:40:52.263Z,10.70
2018-11-13T15:43:21.559Z,10.70
2018-11-13T15:45:50.772Z,10.70
2018-11-13T15:48:19.923Z,10.70
2018-11-13T15:50:49.055Z,10.70
2018-11-13T15:53:18.264Z,10.60
2018-11-13T15:55:47.407Z,10.60
2018-11-13T15:58:16.606Z,10.60
2018-11-13T16:00:45.778Z,10.60
2018-11-13T16:03:23.608Z,10.60
2018-11-13T16:05:54.021Z,10.60
2018-11-13T16:08:23.216Z,10.50
2018-11-13T16:10:52.386Z,10.50
2018-11-13T16:13:21.613Z,10.50
2018-11-13T16:15:50.780Z,10.50
2018-11-13T16:18:21.667Z,10.40
2018-11-13T16:20:50.827Z,10.40
2018-11-13T16:23:20.245Z,10.40
2018-11-13T16:25:49.419Z,10.40
2018-11-13T16:28:18.588Z,10.40
2018-11-13T16:30:47.839Z,10.40
2018-11-13T16:33:16.971Z,10.40
2018-11-13T16:35:46.146Z,10.40
2018-11-13T16:38:15.416Z,10.30
2018-11-13T16:40:44.498Z,10.30
2018-11-13T16:43:13.687Z,10.40
2018-11-13T16:45:42.870Z,10.30
2018-11-13T16:48:12.270Z,10.30
2018-11-13T16:50:42.319Z,10.20
2018-11-13T16:53:11.465Z,10.20
2018-11-13T16:55:45.862Z,10.20
2018-11-13T16:58:16.208Z,10.20
2018-11-13T17:00:46.808Z,10.20
2018-11-13T17:03:15.949Z,10.30
2018-11-13T17:05:45.243Z,10.30
2018-11-13T17:08:14.378Z,10.20
2018-11-13T17:10:44.221Z,10.20
2018-11-13T17:13:13.628Z,10.20
2018-11-13T17:15:42.807Z,10.20
2018-11-13T17:18:13.599Z,10.10
2018-11-13T17:20:41.239Z,10.10
2018-11-13T17:23:10.453Z,10.10
2018-11-13T17:25:40.027Z,10.10
2018-11-13T17:28:09.436Z,10.10
2018-11-13T17:30:38.821Z,10.10
2018-11-13T17:33:09.866Z,10.10
2018-11-13T17:35:39.629Z,10.00
2018-11-13T17:38:08.962Z,10.00
2018-11-13T17:40:38.555Z,10.00
2018-11-13T17:43:11.032Z,9.90
2018-11-13T17:45:41.396Z,9.90
2018-11-13T17:48:12.096Z,9.90
2018-11-13T17:50:42.556Z,10.00
2018-11-13T17:53:12.263Z,10.00
2018-11-13T17:55:41.840Z,10.00
2018-11-13T17:58:14.032Z,10.00
2018-11-13T18:00:44.636Z,10.00
2018-11-13T18:03:15.326Z,10.00
2018-11-13T18:05:45.297Z,10.00
2018-11-13T18:08:14.892Z,10.00
2018-11-13T18:10:45.076Z,10.00
2018-11-13T18:13:14.442Z,10.00
2018-11-13T18:15:43.619Z,10.00
2018-11-13T18:18:12.780Z,10.10
2018-11-13T18:20:42.311Z,10.00
2018-11-13T18:23:11.641Z,10.10
2018-11-13T18:25:40.785Z,10.10
2018-11-13T18:28:10.053Z,10.00
2018-11-13T18:30:39.623Z,10.00
2018-11-13T18:33:09.223Z,9.90
2018-11-13T18:35:39.242Z,10.00
2018-11-13T18:38:09.921Z,10.00
2018-11-13T18:40:39.073Z,9.90
2018-11-13T18:43:08.485Z,9.90
2018-11-13T18:45:39.094Z,10.00
2018-11-13T18:48:08.379Z,10.00
2018-11-13T18:50:39.660Z,10.00
2018-11-13T18:53:08.844Z,9.90
2018-11-13T18:55:38.044Z,9.90
2018-11-13T18:58:07.397Z,10.00
2018-11-13T19:00:38.414Z,10.00
2018-11-13T19:03:09.393Z,9.90
2018-11-13T19:05:38.807Z,9.90
2018-11-13T19:08:08.630Z,9.90
2018-11-13T19:10:40.802Z,9.90
2018-11-13T19:13:11.957Z,10.00
2018-11-13T19:15:44.346Z,9.90
2018-11-13T19:18:14.653Z,9.90
2018-11-13T19:20:43.781Z,9.90
2018-11-13T19:23:12.974Z,9.80
2018-11-13T19:25:42.419Z,9.80
2018-11-13T19:28:11.745Z,9.90
2018-11-13T19:30:40.891Z,9.90
2018-11-13T19:33:10.309Z,9.90
2018-11-13T19:35:39.613Z,9.80
2018-11-13T19:38:08.687Z,9.80
2018-11-13T19:40:38.015Z,9.70
2018-11-13T19:43:08.759Z,9.70
2018-11-13T19:45:37.848Z,9.70
2018-11-13T19:48:07.015Z,9.70
2018-11-13T19:50:37.328Z,9.60
2018-11-13T19:53:06.721Z,9.60
2018-11-13T19:55:36.071Z,9.60
2018-11-13T19:58:05.237Z,9.60
2018-11-13T20:00:35.715Z,9.60
2018-11-13T20:03:06.324Z,9.60
2018-11-13T20:05:35.498Z,9.60
2018-11-13T20:08:05.028Z,9.60
2018-11-13T20:10:35.164Z,9.60
2018-11-13T20:13:05.363Z,9.70
2018-11-13T20:15:35.096Z,9.70
2018-11-13T20:18:04.375Z,9.60
2018-11-13T20:20:34.192Z,9.60
2018-11-13T20:23:04.512Z,9.70
2018-11-13T20:25:34.549Z,9.70
2018-11-13T20:28:03.700Z,9.60
2018-11-13T20:30:37.130Z,9.60
2018-11-13T20:33:06.509Z,9.50
2018-11-13T20:35:35.691Z,9.50
2018-11-13T20:38:05.432Z,9.50
2018-11-13T20:40:35.671Z,9.50
2018-11-13T20:43:07.207Z,9.40
2018-11-13T20:45:36.408Z,9.40
2018-11-13T20:48:05.943Z,9.40
2018-11-13T20:50:35.523Z,9.50
2018-11-13T20:53:04.692Z,9.50
2018-11-13T20:55:33.972Z,9.40
2018-11-13T20:58:03.119Z,9.40
2018-11-13T21:00:33.610Z,9.40
2018-11-13T21:03:02.851Z,9.40
2018-11-13T21:05:32.007Z,9.40
2018-11-13T21:08:01.163Z,9.30
2018-11-13T21:10:36.175Z,9.30
2018-11-13T21:13:05.572Z,9.30
2018-11-13T21:15:34.719Z,9.30
2018-11-13T21:18:03.898Z,9.10
2018-11-13T21:20:33.061Z,9.00
2018-11-13T21:23:02.335Z,9.00
2018-11-13T21:25:31.548Z,8.90
2018-11-13T21:28:01.943Z,8.90
2018-11-13T21:30:31.174Z,8.90
2018-11-13T21:33:00.241Z,8.90
2018-11-13T21:35:29.415Z,8.90
2018-11-13T21:37:58.708Z,9.00
2018-11-13T21:40:28.487Z,9.00
2018-11-13T21:42:58.182Z,9.00
2018-11-13T21:45:28.262Z,9.00
2018-11-13T21:47:57.461Z,9.10
2018-11-13T21:50:27.941Z,9.10
2018-11-13T21:52:58.322Z,9.10
2018-11-13T21:55:28.686Z,9.10
2018-11-13T21:57:57.826Z,9.00
2018-11-13T22:00:30.550Z,8.80
2018-11-13T22:03:03.815Z,8.70
2018-11-13T22:05:33.778Z,8.70
2018-11-13T22:08:02.985Z,8.60
2018-11-13T22:10:32.111Z,8.60
2018-11-13T22:13:01.267Z,8.50
2018-11-13T22:15:31.032Z,8.50
2018-11-13T22:18:00.880Z,8.50
2018-11-13T22:20:29.576Z,8.50
2018-11-13T22:23:00.058Z,8.50
2018-11-13T22:25:29.230Z,8.40
2018-11-13T22:27:59.156Z,8.30
2018-11-13T22:30:30.556Z,8.30
2018-11-13T22:32:59.702Z,8.20
2018-11-13T22:35:28.917Z,8.20
2018-11-13T22:37:58.218Z,8.20
2018-11-13T22:40:28.567Z,8.20
2018-11-13T22:42:58.164Z,8.20
2018-11-13T22:45:28.397Z,8.30
2018-11-13T22:47:57.849Z,8.30
2018-11-13T22:50:28.420Z,8.30
2018-11-13T22:52:57.804Z,8.30
2018-11-13T22:55:26.948Z,8.30
2018-11-13T22:57:56.854Z,8.30
2018-11-13T23:00:34.275Z,8.30
2018-11-13T23:03:03.412Z,8.20
2018-11-13T23:05:32.589Z,8.30
2018-11-13T23:08:01.720Z,8.30
2018-11-13T23:10:30.879Z,8.20
2018-11-13T23:13:00.014Z,8.30
2018-11-13T23:15:29.188Z,8.30
2018-11-13T23:17:58.354Z,8.20
2018-11-13T23:20:27.500Z,8.20
2018-11-13T23:22:56.625Z,8.20
2018-11-13T23:25:25.771Z,8.10
2018-11-13T23:27:54.953Z,8.00
2018-11-13T23:30:25.472Z,8.00
2018-11-13T23:32:55.487Z,7.90
2018-11-13T23:35:24.612Z,7.90
2018-11-13T23:38:57.197Z,7.80
2018-11-13T23:41:26.342Z,7.70
2018-11-13T23:43:55.496Z,7.60
2018-11-13T23:46:25.338Z,7.70
2018-11-13T23:48:54.475Z,7.70
2018-11-13T23:51:23.628Z,7.80
2018-11-13T23:53:52.834Z,7.80
2018-11-13T23:56:21.982Z,7.70
2018-11-13T23:58:51.151Z,7.70
